首页
METAR-TAF:

METAR-TAF

机场 :

罗纳德·里根华盛顿国家机场

华盛顿, 弗吉尼亚州, 美国

纬度: 38-50-54N, 经度: 077-02-03W, 海拔: 4米

当前天气观测

该预报发布于39分钟前的14:52 UTC
静风
温度 6°C
湿度 70%
气压 1013 hPa
能見度: 11.3公里
少量云层高于12000英尺
阴天层高于25000英尺

METAR: KDCA 151452Z 00000KT 7SM FEW120 OVC250 06/01 A2990 RMK AO2 SLP124 T00610011 50010

时间: 10:31 (15:31 UTC)

预报

该预报发布于23分钟前的15:08 UTC
预报有效从15日的 15点(UTC)到 16日的 18点(UTC)
风速7节,风向东转东南
能見度: 10公里
多云层高于12000英尺
阴天层高于25000英尺
从 15日的 2200点(UTC)
风速9节,风向东南
能見度: 10公里
多云层高于3500英尺
阴天层高于10000英尺
小阵雨
从 16日的 0100点(UTC)
风速7节,风向东南
能見度: 9.7公里
阴天层高于2000英尺
小阵雨, 轻雾
从 16日的 0300点(UTC)
风速6节,风向南转南东
能見度: 4.8公里
阴天层高于300英尺
轻雾
从 16日的 0800点(UTC)
风速6节,风向西转西北
能見度: 9.7公里
多云层高于800英尺
轻雾
从 16日的 1200点(UTC)
风速6节,风向西转西北
能見度: 10公里
散云层高于4500英尺

TAF: KDCA 151508Z 1515/1618 11007KT P6SM BKN120 OVC250 FM152200 13009KT P6SM -SHRA BKN035 OVC100 FM160100 14007KT 6SM -SHRA BR OVC020 FM160300 16006KT 3SM BR OVC003 FM160800 29006KT 6SM BR BKN008 FM161200 29006KT P6SM SCT045

超过4000个机场的气象观测和天气预报(METAR&TAF报告)。

可查询的气象台以黄色和红色小点在地图上表示。

将鼠标移到小点上方,可查看气象台名称。

然后点击查看天气观测和预报。

如需切换地图:点击带黑十字的绿色按钮放大地图;点击带横线的绿色按钮缩小地图;或者点击绿色箭头查看邻近地区的地图。


METAR-TAF: